sensor_id;sensor_type;location;lat;lon;timestamp;temperature;humidity
21047;DHT22;10682;50.874;3.656;2023-07-28T00:02:13;18.10;99.90
21047;DHT22;10682;50.874;3.656;2023-07-28T00:04:40;18.20;99.90
21047;DHT22;10682;50.874;3.656;2023-07-28T00:07:07;18.10;99.90
21047;DHT22;10682;50.874;3.656;2023-07-28T00:09:34;18.10;99.90
21047;DHT22;10682;50.874;3.656;2023-07-28T00:12:02;18.10;99.90
21047;DHT22;10682;50.874;3.656;2023-07-28T00:14:29;18.10;99.90
21047;DHT22;10682;50.874;3.656;2023-07-28T00:16:57;18.10;99.90
21047;DHT22;10682;50.874;3.656;2023-07-28T00:19:25;18.10;99.90
21047;DHT22;10682;50.874;3.656;2023-07-28T00:21:52;18.10;99.90
21047;DHT22;10682;50.874;3.656;2023-07-28T00:24:20;18.20;99.90
21047;DHT22;10682;50.874;3.656;2023-07-28T00:26:47;18.20;99.90
21047;DHT22;10682;50.874;3.656;2023-07-28T00:29:14;18.20;99.90
21047;DHT22;10682;50.874;3.656;2023-07-28T00:31:41;18.10;99.90
21047;DHT22;10682;50.874;3.656;2023-07-28T00:34:08;18.20;99.90
21047;DHT22;10682;50.874;3.656;2023-07-28T00:36:37;18.20;99.90
21047;DHT22;10682;50.874;3.656;2023-07-28T00:39:04;18.20;99.90
21047;DHT22;10682;50.874;3.656;2023-07-28T00:41:32;18.20;99.90
21047;DHT22;10682;50.874;3.656;2023-07-28T00:43:59;18.20;99.90
21047;DHT22;10682;50.874;3.656;2023-07-28T00:46:27;18.20;99.90
21047;DHT22;10682;50.874;3.656;2023-07-28T00:48:54;18.20;99.90
21047;DHT22;10682;50.874;3.656;2023-07-28T00:51:22;18.20;99.90
21047;DHT22;10682;50.874;3.656;2023-07-28T00:53:49;18.20;99.90
21047;DHT22;10682;50.874;3.656;2023-07-28T00:56:17;18.30;99.90
21047;DHT22;10682;50.874;3.656;2023-07-28T00:58:44;18.20;99.90
21047;DHT22;10682;50.874;3.656;2023-07-28T01:01:11;18.20;99.90
21047;DHT22;10682;50.874;3.656;2023-07-28T01:03:38;18.20;99.90
21047;DHT22;10682;50.874;3.656;2023-07-28T01:06:26;18.20;99.90
21047;DHT22;10682;50.874;3.656;2023-07-28T01:09:06;18.20;99.90
21047;DHT22;10682;50.874;3.656;2023-07-28T01:11:37;18.20;99.90
21047;DHT22;10682;50.874;3.656;2023-07-28T01:14:04;18.20;99.90
21047;DHT22;10682;50.874;3.656;2023-07-28T01:16:31;18.30;99.90
21047;DHT22;10682;50.874;3.656;2023-07-28T01:18:58;18.20;99.90
21047;DHT22;10682;50.874;3.656;2023-07-28T01:21:28;18.20;99.90
21047;DHT22;10682;50.874;3.656;2023-07-28T01:26:38;18.30;99.90
21047;DHT22;10682;50.874;3.656;2023-07-28T01:29:05;18.30;99.90
21047;DHT22;10682;50.874;3.656;2023-07-28T01:31:33;18.30;99.90
21047;DHT22;10682;50.874;3.656;2023-07-28T01:34:00;18.20;99.90
21047;DHT22;10682;50.874;3.656;2023-07-28T01:36:27;18.30;99.90
21047;DHT22;10682;50.874;3.656;2023-07-28T01:38:54;18.20;99.90
21047;DHT22;10682;50.874;3.656;2023-07-28T01:41:21;18.20;99.90
21047;DHT22;10682;50.874;3.656;2023-07-28T01:43:49;18.20;99.90
21047;DHT22;10682;50.874;3.656;2023-07-28T01:46:16;18.30;99.90
21047;DHT22;10682;50.874;3.656;2023-07-28T01:48:43;18.20;99.90
21047;DHT22;10682;50.874;3.656;2023-07-28T01:51:10;18.30;99.90
21047;DHT22;10682;50.874;3.656;2023-07-28T01:53:37;18.20;99.90
21047;DHT22;10682;50.874;3.656;2023-07-28T01:56:04;18.20;99.90
21047;DHT22;10682;50.874;3.656;2023-07-28T01:58:31;18.30;99.90
21047;DHT22;10682;50.874;3.656;2023-07-28T02:00:58;18.20;99.90
21047;DHT22;10682;50.874;3.656;2023-07-28T02:03:27;18.20;99.90
21047;DHT22;10682;50.874;3.656;2023-07-28T02:05:54;18.30;99.90
21047;DHT22;10682;50.874;3.656;2023-07-28T02:08:21;18.30;99.90
21047;DHT22;10682;50.874;3.656;2023-07-28T02:10:49;18.30;99.90
21047;DHT22;10682;50.874;3.656;2023-07-28T02:13:16;18.30;99.90
21047;DHT22;10682;50.874;3.656;2023-07-28T02:15:43;18.30;99.90
21047;DHT22;10682;50.874;3.656;2023-07-28T02:18:10;18.20;99.90
21047;DHT22;10682;50.874;3.656;2023-07-28T02:20:37;18.30;99.90
21047;DHT22;10682;50.874;3.656;2023-07-28T02:23:05;18.30;99.90
21047;DHT22;10682;50.874;3.656;2023-07-28T02:25:33;18.30;99.90
21047;DHT22;10682;50.874;3.656;2023-07-28T02:28:00;18.30;99.90
21047;DHT22;10682;50.874;3.656;2023-07-28T02:30:27;18.30;99.90
21047;DHT22;10682;50.874;3.656;2023-07-28T02:32:54;18.30;99.90
21047;DHT22;10682;50.874;3.656;2023-07-28T02:35:21;18.30;99.90
21047;DHT22;10682;50.874;3.656;2023-07-28T02:37:48;18.30;99.90
21047;DHT22;10682;50.874;3.656;2023-07-28T02:40:15;18.30;99.90
21047;DHT22;10682;50.874;3.656;2023-07-28T02:42:43;18.30;99.90
21047;DHT22;10682;50.874;3.656;2023-07-28T02:45:10;18.30;99.90
21047;DHT22;10682;50.874;3.656;2023-07-28T02:47:37;18.30;99.90
21047;DHT22;10682;50.874;3.656;2023-07-28T02:50:04;18.20;99.90
21047;DHT22;10682;50.874;3.656;2023-07-28T02:52:32;18.20;99.90
21047;DHT22;10682;50.874;3.656;2023-07-28T02:55:00;18.30;99.90
21047;DHT22;10682;50.874;3.656;2023-07-28T02:57:27;18.30;99.90
21047;DHT22;10682;50.874;3.656;2023-07-28T02:59:54;18.30;99.90
21047;DHT22;10682;50.874;3.656;2023-07-28T03:02:21;18.20;99.90
21047;DHT22;10682;50.874;3.656;2023-07-28T03:04:49;18.30;99.90
21047;DHT22;10682;50.874;3.656;2023-07-28T03:07:17;18.30;99.90
21047;DHT22;10682;50.874;3.656;2023-07-28T03:09:44;18.30;99.90
21047;DHT22;10682;50.874;3.656;2023-07-28T03:12:11;18.20;99.90
21047;DHT22;10682;50.874;3.656;2023-07-28T03:14:38;18.20;99.90
21047;DHT22;10682;50.874;3.656;2023-07-28T03:17:06;18.20;99.90
21047;DHT22;10682;50.874;3.656;2023-07-28T03:19:33;18.20;99.90
21047;DHT22;10682;50.874;3.656;2023-07-28T03:22:00;18.20;99.90
21047;DHT22;10682;50.874;3.656;2023-07-28T03:24:27;18.20;99.90
21047;DHT22;10682;50.874;3.656;2023-07-28T03:26:54;18.20;99.90
21047;DHT22;10682;50.874;3.656;2023-07-28T03:29:22;18.20;99.90
21047;DHT22;10682;50.874;3.656;2023-07-28T03:31:49;18.20;99.90
21047;DHT22;10682;50.874;3.656;2023-07-28T03:34:16;18.20;99.90
21047;DHT22;10682;50.874;3.656;2023-07-28T03:36:44;18.20;99.90
21047;DHT22;10682;50.874;3.656;2023-07-28T03:39:11;18.20;99.90
21047;DHT22;10682;50.874;3.656;2023-07-28T03:41:38;18.20;99.90
21047;DHT22;10682;50.874;3.656;2023-07-28T03:44:05;18.20;99.90
21047;DHT22;10682;50.874;3.656;2023-07-28T03:46:32;18.20;99.90
21047;DHT22;10682;50.874;3.656;2023-07-28T03:49:00;18.20;99.90
21047;DHT22;10682;50.874;3.656;2023-07-28T03:51:27;18.20;99.90
21047;DHT22;10682;50.874;3.656;2023-07-28T03:53:54;18.20;99.90
21047;DHT22;10682;50.874;3.656;2023-07-28T03:56:21;18.20;99.90
21047;DHT22;10682;50.874;3.656;2023-07-28T03:58:48;18.20;99.90
21047;DHT22;10682;50.874;3.656;2023-07-28T04:01:15;18.20;99.90
21047;DHT22;10682;50.874;3.656;2023-07-28T04:03:43;18.20;99.90
21047;DHT22;10682;50.874;3.656;2023-07-28T04:06:11;18.20;99.90
21047;DHT22;10682;50.874;3.656;2023-07-28T04:08:39;18.20;99.90
21047;DHT22;10682;50.874;3.656;2023-07-28T04:11:07;18.20;99.90
21047;DHT22;10682;50.874;3.656;2023-07-28T04:13:34;18.20;99.90
21047;DHT22;10682;50.874;3.656;2023-07-28T04:16:01;18.20;99.90
21047;DHT22;10682;50.874;3.656;2023-07-28T04:18:29;18.20;99.90
21047;DHT22;10682;50.874;3.656;2023-07-28T04:20:56;18.20;99.90
21047;DHT22;10682;50.874;3.656;2023-07-28T04:23:23;18.20;99.90
21047;DHT22;10682;50.874;3.656;2023-07-28T04:25:50;18.20;99.90
21047;DHT22;10682;50.874;3.656;2023-07-28T04:28:18;18.20;99.90
21047;DHT22;10682;50.874;3.656;2023-07-28T04:30:46;18.20;99.90
21047;DHT22;10682;50.874;3.656;2023-07-28T04:33:13;18.20;99.90
21047;DHT22;10682;50.874;3.656;2023-07-28T04:35:40;18.20;99.90
21047;DHT22;10682;50.874;3.656;2023-07-28T04:38:08;18.20;99.90
21047;DHT22;10682;50.874;3.656;2023-07-28T04:40:35;18.20;99.90
21047;DHT22;10682;50.874;3.656;2023-07-28T04:43:03;18.20;99.90
21047;DHT22;10682;50.874;3.656;2023-07-28T04:45:30;18.20;99.90
21047;DHT22;10682;50.874;3.656;2023-07-28T04:47:57;18.20;99.90
21047;DHT22;10682;50.874;3.656;2023-07-28T04:50:24;18.20;99.90
21047;DHT22;10682;50.874;3.656;2023-07-28T04:52:51;18.20;99.90
21047;DHT22;10682;50.874;3.656;2023-07-28T04:55:19;18.20;99.90
21047;DHT22;10682;50.874;3.656;2023-07-28T04:57:46;18.20;99.90
21047;DHT22;10682;50.874;3.656;2023-07-28T05:00:13;18.20;99.90
21047;DHT22;10682;50.874;3.656;2023-07-28T05:02:41;18.20;99.90
21047;DHT22;10682;50.874;3.656;2023-07-28T05:05:08;18.30;99.90
21047;DHT22;10682;50.874;3.656;2023-07-28T05:07:35;18.30;99.90
21047;DHT22;10682;50.874;3.656;2023-07-28T05:10:02;18.30;99.90
21047;DHT22;10682;50.874;3.656;2023-07-28T05:12:30;18.30;99.90
21047;DHT22;10682;50.874;3.656;2023-07-28T05:14:57;18.30;99.90
21047;DHT22;10682;50.874;3.656;2023-07-28T05:17:24;18.30;99.90
21047;DHT22;10682;50.874;3.656;2023-07-28T05:19:51;18.30;99.90
21047;DHT22;10682;50.874;3.656;2023-07-28T05:22:18;18.30;99.90
21047;DHT22;10682;50.874;3.656;2023-07-28T05:24:45;18.40;99.90
21047;DHT22;10682;50.874;3.656;2023-07-28T05:27:13;18.40;99.90
21047;DHT22;10682;50.874;3.656;2023-07-28T05:29:40;18.40;99.90
21047;DHT22;10682;50.874;3.656;2023-07-28T05:32:07;18.40;99.90
21047;DHT22;10682;50.874;3.656;2023-07-28T05:34:34;18.40;99.90
21047;DHT22;10682;50.874;3.656;2023-07-28T05:37:01;18.40;99.90
21047;DHT22;10682;50.874;3.656;2023-07-28T05:39:29;18.40;99.90
21047;DHT22;10682;50.874;3.656;2023-07-28T05:41:56;18.50;99.90
21047;DHT22;10682;50.874;3.656;2023-07-28T05:44:23;18.50;99.90
21047;DHT22;10682;50.874;3.656;2023-07-28T05:46:50;18.50;99.90
21047;DHT22;10682;50.874;3.656;2023-07-28T05:49:17;18.50;99.90
21047;DHT22;10682;50.874;3.656;2023-07-28T05:51:44;18.60;99.90
21047;DHT22;10682;50.874;3.656;2023-07-28T05:54:14;18.60;99.90
21047;DHT22;10682;50.874;3.656;2023-07-28T05:56:42;18.60;99.90
21047;DHT22;10682;50.874;3.656;2023-07-28T05:59:09;18.60;99.90
21047;DHT22;10682;50.874;3.656;2023-07-28T06:01:37;18.60;99.90
21047;DHT22;10682;50.874;3.656;2023-07-28T06:04:04;18.70;99.90
21047;DHT22;10682;50.874;3.656;2023-07-28T06:06:31;18.70;99.90
21047;DHT22;10682;50.874;3.656;2023-07-28T06:08:58;18.70;99.90
21047;DHT22;10682;50.874;3.656;2023-07-28T06:11:25;18.70;99.90
21047;DHT22;10682;50.874;3.656;2023-07-28T06:13:53;18.80;99.90
21047;DHT22;10682;50.874;3.656;2023-07-28T06:16:20;18.90;99.90
21047;DHT22;10682;50.874;3.656;2023-07-28T06:18:47;18.80;99.90
21047;DHT22;10682;50.874;3.656;2023-07-28T06:21:14;18.90;99.90
21047;DHT22;10682;50.874;3.656;2023-07-28T06:23:41;18.90;99.90
21047;DHT22;10682;50.874;3.656;2023-07-28T06:26:09;18.90;99.90
21047;DHT22;10682;50.874;3.656;2023-07-28T06:28:37;18.80;99.90
21047;DHT22;10682;50.874;3.656;2023-07-28T06:31:05;18.80;99.90
21047;DHT22;10682;50.874;3.656;2023-07-28T06:33:33;18.90;99.90
21047;DHT22;10682;50.874;3.656;2023-07-28T06:36:00;18.90;99.90
21047;DHT22;10682;50.874;3.656;2023-07-28T06:38:28;18.90;99.90
21047;DHT22;10682;50.874;3.656;2023-07-28T06:40:55;18.90;99.90
21047;DHT22;10682;50.874;3.656;2023-07-28T06:43:22;18.80;99.90
21047;DHT22;10682;50.874;3.656;2023-07-28T06:45:54;18.90;99.90
21047;DHT22;10682;50.874;3.656;2023-07-28T06:48:21;18.90;99.90
21047;DHT22;10682;50.874;3.656;2023-07-28T06:50:48;19.00;99.90
21047;DHT22;10682;50.874;3.656;2023-07-28T06:53:15;19.10;99.90
21047;DHT22;10682;50.874;3.656;2023-07-28T06:55:43;19.20;99.90
21047;DHT22;10682;50.874;3.656;2023-07-28T06:58:10;19.30;99.90
21047;DHT22;10682;50.874;3.656;2023-07-28T07:00:38;19.40;99.90
21047;DHT22;10682;50.874;3.656;2023-07-28T07:03:05;19.40;99.90
21047;DHT22;10682;50.874;3.656;2023-07-28T07:05:34;19.40;99.90
21047;DHT22;10682;50.874;3.656;2023-07-28T07:08:02;19.50;99.90
21047;DHT22;10682;50.874;3.656;2023-07-28T07:10:29;19.50;99.90
21047;DHT22;10682;50.874;3.656;2023-07-28T07:12:57;19.60;99.90
21047;DHT22;10682;50.874;3.656;2023-07-28T07:15:24;19.60;99.90
21047;DHT22;10682;50.874;3.656;2023-07-28T07:17:51;19.70;99.90
21047;DHT22;10682;50.874;3.656;2023-07-28T07:20:19;19.60;99.90
21047;DHT22;10682;50.874;3.656;2023-07-28T07:22:46;19.50;99.90
21047;DHT22;10682;50.874;3.656;2023-07-28T07:25:14;19.50;99.90
21047;DHT22;10682;50.874;3.656;2023-07-28T07:27:41;19.40;99.90
21047;DHT22;10682;50.874;3.656;2023-07-28T07:30:08;19.40;99.90
21047;DHT22;10682;50.874;3.656;2023-07-28T07:32:36;19.40;99.90
21047;DHT22;10682;50.874;3.656;2023-07-28T07:35:03;19.40;99.90
21047;DHT22;10682;50.874;3.656;2023-07-28T07:37:31;19.50;99.90
21047;DHT22;10682;50.874;3.656;2023-07-28T07:39:58;19.70;99.90
21047;DHT22;10682;50.874;3.656;2023-07-28T07:42:31;19.90;99.90
21047;DHT22;10682;50.874;3.656;2023-07-28T07:45:10;20.20;99.90
21047;DHT22;10682;50.874;3.656;2023-07-28T07:47:38;20.20;99.90
21047;DHT22;10682;50.874;3.656;2023-07-28T07:50:08;20.30;99.90
21047;DHT22;10682;50.874;3.656;2023-07-28T07:52:36;20.30;99.90
21047;DHT22;10682;50.874;3.656;2023-07-28T07:55:09;20.30;99.90
21047;DHT22;10682;50.874;3.656;2023-07-28T07:57:40;20.20;99.90
21047;DHT22;10682;50.874;3.656;2023-07-28T08:00:09;20.20;99.90
21047;DHT22;10682;50.874;3.656;2023-07-28T08:02:41;20.20;99.90
21047;DHT22;10682;50.874;3.656;2023-07-28T08:05:18;20.30;99.90
21047;DHT22;10682;50.874;3.656;2023-07-28T08:07:45;20.40;99.90
21047;DHT22;10682;50.874;3.656;2023-07-28T08:10:14;20.50;99.90
21047;DHT22;10682;50.874;3.656;2023-07-28T08:12:41;20.50;99.90
21047;DHT22;10682;50.874;3.656;2023-07-28T08:15:08;20.40;99.90
21047;DHT22;10682;50.874;3.656;2023-07-28T08:17:36;20.20;99.90
21047;DHT22;10682;50.874;3.656;2023-07-28T08:20:04;20.20;99.90
21047;DHT22;10682;50.874;3.656;2023-07-28T08:22:32;20.10;99.90
21047;DHT22;10682;50.874;3.656;2023-07-28T08:24:59;20.10;99.90
21047;DHT22;10682;50.874;3.656;2023-07-28T08:27:26;20.10;99.90
21047;DHT22;10682;50.874;3.656;2023-07-28T08:29:53;20.00;99.90
21047;DHT22;10682;50.874;3.656;2023-07-28T08:32:20;20.00;99.90
21047;DHT22;10682;50.874;3.656;2023-07-28T08:34:48;20.10;99.90
21047;DHT22;10682;50.874;3.656;2023-07-28T08:37:15;20.10;99.90
21047;DHT22;10682;50.874;3.656;2023-07-28T08:39:43;20.00;99.90
21047;DHT22;10682;50.874;3.656;2023-07-28T08:42:10;19.90;99.90
21047;DHT22;10682;50.874;3.656;2023-07-28T08:44:37;19.90;99.90
21047;DHT22;10682;50.874;3.656;2023-07-28T08:47:05;19.90;99.90
21047;DHT22;10682;50.874;3.656;2023-07-28T08:49:32;19.90;99.90
21047;DHT22;10682;50.874;3.656;2023-07-28T08:52:03;19.90;99.90
21047;DHT22;10682;50.874;3.656;2023-07-28T08:54:31;20.00;99.90
21047;DHT22;10682;50.874;3.656;2023-07-28T08:56:58;20.40;99.90
21047;DHT22;10682;50.874;3.656;2023-07-28T08:59:27;20.60;99.90
21047;DHT22;10682;50.874;3.656;2023-07-28T09:02:30;20.60;99.90
21047;DHT22;10682;50.874;3.656;2023-07-28T09:04:57;20.60;99.90
21047;DHT22;10682;50.874;3.656;2023-07-28T09:07:24;20.50;99.90
21047;DHT22;10682;50.874;3.656;2023-07-28T09:09:59;20.40;99.90
21047;DHT22;10682;50.874;3.656;2023-07-28T09:12:30;20.20;99.90
21047;DHT22;10682;50.874;3.656;2023-07-28T09:14:58;20.00;99.90
21047;DHT22;10682;50.874;3.656;2023-07-28T09:17:25;19.90;99.90
21047;DHT22;10682;50.874;3.656;2023-07-28T09:19:53;20.00;99.90
21047;DHT22;10682;50.874;3.656;2023-07-28T09:22:22;19.90;99.90
21047;DHT22;10682;50.874;3.656;2023-07-28T09:24:50;20.00;99.90
21047;DHT22;10682;50.874;3.656;2023-07-28T09:27:23;20.00;99.90
21047;DHT22;10682;50.874;3.656;2023-07-28T09:29:52;20.00;99.90
21047;DHT22;10682;50.874;3.656;2023-07-28T09:32:32;20.00;99.90
21047;DHT22;10682;50.874;3.656;2023-07-28T09:35:12;20.10;99.90
21047;DHT22;10682;50.874;3.656;2023-07-28T09:37:47;20.10;99.90
21047;DHT22;10682;50.874;3.656;2023-07-28T09:40:22;20.30;99.90
21047;DHT22;10682;50.874;3.656;2023-07-28T09:42:50;20.50;99.90
21047;DHT22;10682;50.874;3.656;2023-07-28T09:45:22;20.70;99.90
21047;DHT22;10682;50.874;3.656;2023-07-28T09:48:06;20.90;99.90
21047;DHT22;10682;50.874;3.656;2023-07-28T09:50:37;21.10;99.90
21047;DHT22;10682;50.874;3.656;2023-07-28T09:53:08;21.30;99.90
21047;DHT22;10682;50.874;3.656;2023-07-28T09:55:39;21.60;99.90
21047;DHT22;10682;50.874;3.656;2023-07-28T09:58:12;21.50;99.90
21047;DHT22;10682;50.874;3.656;2023-07-28T10:00:43;21.40;99.90
21047;DHT22;10682;50.874;3.656;2023-07-28T10:03:11;21.40;99.90
21047;DHT22;10682;50.874;3.656;2023-07-28T10:05:38;21.30;99.90
21047;DHT22;10682;50.874;3.656;2023-07-28T10:08:07;21.20;99.90
21047;DHT22;10682;50.874;3.656;2023-07-28T10:10:34;21.10;99.90
21047;DHT22;10682;50.874;3.656;2023-07-28T10:13:02;21.00;99.90
21047;DHT22;10682;50.874;3.656;2023-07-28T10:15:32;21.00;99.90
21047;DHT22;10682;50.874;3.656;2023-07-28T10:17:59;20.90;99.90
21047;DHT22;10682;50.874;3.656;2023-07-28T10:20:30;20.90;99.90
21047;DHT22;10682;50.874;3.656;2023-07-28T10:25:57;20.90;99.90
21047;DHT22;10682;50.874;3.656;2023-07-28T10:31:03;21.10;99.90
21047;DHT22;10682;50.874;3.656;2023-07-28T10:33:35;21.30;99.90
21047;DHT22;10682;50.874;3.656;2023-07-28T10:39:16;21.80;99.90
21047;DHT22;10682;50.874;3.656;2023-07-28T10:44:32;21.90;99.90
21047;DHT22;10682;50.874;3.656;2023-07-28T10:46:59;22.00;99.90
21047;DHT22;10682;50.874;3.656;2023-07-28T10:49:28;21.90;99.90
21047;DHT22;10682;50.874;3.656;2023-07-28T10:51:55;21.90;99.90
21047;DHT22;10682;50.874;3.656;2023-07-28T10:54:22;21.80;99.90
21047;DHT22;10682;50.874;3.656;2023-07-28T10:56:50;21.80;99.90
21047;DHT22;10682;50.874;3.656;2023-07-28T10:59:17;21.70;99.90
21047;DHT22;10682;50.874;3.656;2023-07-28T11:01:44;21.80;99.90
21047;DHT22;10682;50.874;3.656;2023-07-28T11:04:16;21.90;99.90
21047;DHT22;10682;50.874;3.656;2023-07-28T11:06:46;22.00;99.90
21047;DHT22;10682;50.874;3.656;2023-07-28T11:09:17;22.10;99.90
21047;DHT22;10682;50.874;3.656;2023-07-28T11:11:46;22.10;99.90
21047;DHT22;10682;50.874;3.656;2023-07-28T11:14:16;22.30;99.90
21047;DHT22;10682;50.874;3.656;2023-07-28T11:16:45;22.70;99.90
21047;DHT22;10682;50.874;3.656;2023-07-28T11:19:15;22.90;99.90
21047;DHT22;10682;50.874;3.656;2023-07-28T11:21:52;22.80;99.90
21047;DHT22;10682;50.874;3.656;2023-07-28T11:24:20;22.80;99.90
21047;DHT22;10682;50.874;3.656;2023-07-28T11:26:49;22.80;99.90
21047;DHT22;10682;50.874;3.656;2023-07-28T11:29:18;22.80;99.90
21047;DHT22;10682;50.874;3.656;2023-07-28T11:31:46;22.70;99.90
21047;DHT22;10682;50.874;3.656;2023-07-28T11:34:16;22.50;99.90
21047;DHT22;10682;50.874;3.656;2023-07-28T11:36:43;22.20;99.90
21047;DHT22;10682;50.874;3.656;2023-07-28T11:39:11;22.00;99.90
21047;DHT22;10682;50.874;3.656;2023-07-28T11:41:39;21.80;99.90
21047;DHT22;10682;50.874;3.656;2023-07-28T11:44:07;21.60;99.90
21047;DHT22;10682;50.874;3.656;2023-07-28T11:46:40;21.50;99.90
21047;DHT22;10682;50.874;3.656;2023-07-28T11:49:19;21.40;99.90
21047;DHT22;10682;50.874;3.656;2023-07-28T11:51:51;21.30;99.90
21047;DHT22;10682;50.874;3.656;2023-07-28T11:54:25;21.30;99.90
21047;DHT22;10682;50.874;3.656;2023-07-28T11:56:56;21.40;99.90
21047;DHT22;10682;50.874;3.656;2023-07-28T11:59:23;21.50;99.90
21047;DHT22;10682;50.874;3.656;2023-07-28T12:01:55;21.80;99.90
21047;DHT22;10682;50.874;3.656;2023-07-28T12:04:31;22.00;99.90
21047;DHT22;10682;50.874;3.656;2023-07-28T12:07:06;22.10;99.90
21047;DHT22;10682;50.874;3.656;2023-07-28T12:09:49;22.30;99.90
21047;DHT22;10682;50.874;3.656;2023-07-28T12:12:23;22.80;99.90
21047;DHT22;10682;50.874;3.656;2023-07-28T12:14:53;23.10;99.90
21047;DHT22;10682;50.874;3.656;2023-07-28T12:17:24;23.30;99.90
21047;DHT22;10682;50.874;3.656;2023-07-28T12:20:14;23.40;99.90
21047;DHT22;10682;50.874;3.656;2023-07-28T12:22:43;23.40;99.90
21047;DHT22;10682;50.874;3.656;2023-07-28T12:25:11;23.10;99.90
21047;DHT22;10682;50.874;3.656;2023-07-28T12:27:39;23.00;99.90
21047;DHT22;10682;50.874;3.656;2023-07-28T12:30:07;23.00;99.90
21047;DHT22;10682;50.874;3.656;2023-07-28T12:32:43;23.10;99.90
21047;DHT22;10682;50.874;3.656;2023-07-28T12:35:14;23.40;99.90
21047;DHT22;10682;50.874;3.656;2023-07-28T12:37:41;23.80;99.90
21047;DHT22;10682;50.874;3.656;2023-07-28T12:40:11;24.00;99.90
21047;DHT22;10682;50.874;3.656;2023-07-28T12:42:42;24.00;99.90
21047;DHT22;10682;50.874;3.656;2023-07-28T12:45:12;24.00;99.90
21047;DHT22;10682;50.874;3.656;2023-07-28T12:47:43;24.00;99.90
21047;DHT22;10682;50.874;3.656;2023-07-28T12:50:10;23.80;99.90
21047;DHT22;10682;50.874;3.656;2023-07-28T12:52:40;23.60;99.90
21047;DHT22;10682;50.874;3.656;2023-07-28T12:55:11;23.30;99.90
21047;DHT22;10682;50.874;3.656;2023-07-28T12:57:41;23.00;99.90
21047;DHT22;10682;50.874;3.656;2023-07-28T13:00:11;22.80;99.90
21047;DHT22;10682;50.874;3.656;2023-07-28T13:02:45;22.50;99.90
21047;DHT22;10682;50.874;3.656;2023-07-28T13:05:13;22.40;99.90
21047;DHT22;10682;50.874;3.656;2023-07-28T13:07:42;22.40;99.90
21047;DHT22;10682;50.874;3.656;2023-07-28T13:10:12;22.50;99.90
21047;DHT22;10682;50.874;3.656;2023-07-28T13:12:42;22.70;99.90
21047;DHT22;10682;50.874;3.656;2023-07-28T13:15:12;22.90;99.90
21047;DHT22;10682;50.874;3.656;2023-07-28T13:17:39;23.10;99.90
21047;DHT22;10682;50.874;3.656;2023-07-28T13:20:07;23.20;99.90
21047;DHT22;10682;50.874;3.656;2023-07-28T13:22:35;23.30;99.90
21047;DHT22;10682;50.874;3.656;2023-07-28T13:25:03;23.50;99.90
21047;DHT22;10682;50.874;3.656;2023-07-28T13:27:30;23.60;99.90
21047;DHT22;10682;50.874;3.656;2023-07-28T13:29:57;23.60;99.90
21047;DHT22;10682;50.874;3.656;2023-07-28T13:32:25;23.80;99.90
21047;DHT22;10682;50.874;3.656;2023-07-28T13:34:53;24.20;99.90
21047;DHT22;10682;50.874;3.656;2023-07-28T13:37:20;24.50;99.90
21047;DHT22;10682;50.874;3.656;2023-07-28T13:39:47;24.70;99.90
21047;DHT22;10682;50.874;3.656;2023-07-28T13:42:14;24.80;99.90
21047;DHT22;10682;50.874;3.656;2023-07-28T13:44:42;24.40;99.90
21047;DHT22;10682;50.874;3.656;2023-07-28T13:47:24;24.20;99.90
21047;DHT22;10682;50.874;3.656;2023-07-28T13:49:52;24.40;99.90
21047;DHT22;10682;50.874;3.656;2023-07-28T13:52:19;24.60;99.90
21047;DHT22;10682;50.874;3.656;2023-07-28T13:54:48;24.60;99.90
21047;DHT22;10682;50.874;3.656;2023-07-28T13:57:19;24.70;99.90
21047;DHT22;10682;50.874;3.656;2023-07-28T13:59:46;24.70;99.90
21047;DHT22;10682;50.874;3.656;2023-07-28T14:02:14;24.70;99.90
21047;DHT22;10682;50.874;3.656;2023-07-28T14:04:43;24.70;99.90
21047;DHT22;10682;50.874;3.656;2023-07-28T14:07:10;24.70;99.90
21047;DHT22;10682;50.874;3.656;2023-07-28T14:09:37;25.00;99.90
21047;DHT22;10682;50.874;3.656;2023-07-28T14:12:05;25.10;99.90
21047;DHT22;10682;50.874;3.656;2023-07-28T14:14:33;25.40;99.90
21047;DHT22;10682;50.874;3.656;2023-07-28T14:17:00;25.30;99.90
21047;DHT22;10682;50.874;3.656;2023-07-28T14:19:27;25.10;99.90
21047;DHT22;10682;50.874;3.656;2023-07-28T14:21:54;24.90;99.90
21047;DHT22;10682;50.874;3.656;2023-07-28T14:24:21;24.80;99.90
21047;DHT22;10682;50.874;3.656;2023-07-28T14:26:48;24.60;99.90
21047;DHT22;10682;50.874;3.656;2023-07-28T14:29:15;24.40;99.90
21047;DHT22;10682;50.874;3.656;2023-07-28T14:31:42;24.40;99.90
21047;DHT22;10682;50.874;3.656;2023-07-28T14:34:10;24.40;99.90
21047;DHT22;10682;50.874;3.656;2023-07-28T14:36:38;24.30;99.90
21047;DHT22;10682;50.874;3.656;2023-07-28T14:39:06;24.30;99.90
21047;DHT22;10682;50.874;3.656;2023-07-28T14:41:37;24.40;99.90
21047;DHT22;10682;50.874;3.656;2023-07-28T14:44:04;24.80;99.90
21047;DHT22;10682;50.874;3.656;2023-07-28T14:46:31;25.20;99.90
21047;DHT22;10682;50.874;3.656;2023-07-28T14:48:58;25.30;99.90
21047;DHT22;10682;50.874;3.656;2023-07-28T14:51:25;25.50;99.90
21047;DHT22;10682;50.874;3.656;2023-07-28T14:53:57;25.60;99.90
21047;DHT22;10682;50.874;3.656;2023-07-28T14:56:24;25.50;99.90
21047;DHT22;10682;50.874;3.656;2023-07-28T14:58:52;25.20;99.90
21047;DHT22;10682;50.874;3.656;2023-07-28T15:01:19;25.30;99.90
21047;DHT22;10682;50.874;3.656;2023-07-28T15:03:47;25.40;99.90
21047;DHT22;10682;50.874;3.656;2023-07-28T15:06:14;25.40;99.90
21047;DHT22;10682;50.874;3.656;2023-07-28T15:08:41;25.50;99.90
21047;DHT22;10682;50.874;3.656;2023-07-28T15:11:09;25.80;99.90
21047;DHT22;10682;50.874;3.656;2023-07-28T15:13:36;25.80;99.90
21047;DHT22;10682;50.874;3.656;2023-07-28T15:16:05;25.80;99.90
21047;DHT22;10682;50.874;3.656;2023-07-28T15:18:33;25.80;99.90
21047;DHT22;10682;50.874;3.656;2023-07-28T15:21:00;25.80;99.90
21047;DHT22;10682;50.874;3.656;2023-07-28T15:23:29;25.70;99.90
21047;DHT22;10682;50.874;3.656;2023-07-28T15:25:56;25.70;99.90
21047;DHT22;10682;50.874;3.656;2023-07-28T15:28:28;25.60;99.90
21047;DHT22;10682;50.874;3.656;2023-07-28T15:30:55;25.40;99.90
21047;DHT22;10682;50.874;3.656;2023-07-28T15:33:23;25.40;99.90
21047;DHT22;10682;50.874;3.656;2023-07-28T15:35:52;25.40;99.90
21047;DHT22;10682;50.874;3.656;2023-07-28T15:38:19;25.30;99.90
21047;DHT22;10682;50.874;3.656;2023-07-28T15:40:46;25.30;99.90
21047;DHT22;10682;50.874;3.656;2023-07-28T15:43:13;25.40;99.90
21047;DHT22;10682;50.874;3.656;2023-07-28T15:45:40;25.50;99.90
21047;DHT22;10682;50.874;3.656;2023-07-28T15:48:07;25.50;99.90
21047;DHT22;10682;50.874;3.656;2023-07-28T15:50:35;25.50;99.90
21047;DHT22;10682;50.874;3.656;2023-07-28T15:53:02;25.60;99.90